createdAt,value
2023-04-18T00:01:58.578Z,100848.41
2023-04-18T00:04:26.166Z,100844.13
2023-04-18T00:06:53.676Z,100847.94
2023-04-18T00:09:20.806Z,100848.91
2023-04-18T00:11:47.738Z,100848.91
2023-04-18T00:14:15.131Z,100844.63
2023-04-18T00:16:42.501Z,100843.78
2023-04-18T00:19:13.145Z,100846.28
2023-04-18T00:21:44.916Z,100842.84
2023-04-18T00:24:12.449Z,100839.16
2023-04-18T00:26:39.526Z,100842.59
2023-04-18T00:29:06.513Z,100836.53
2023-04-18T00:31:35.893Z,100837.22
2023-04-18T00:34:02.864Z,100832.94
2023-04-18T00:36:30.100Z,100841.38
2023-04-18T00:38:57.116Z,100840.53
2023-04-18T00:41:27.666Z,100839.72
2023-04-18T00:43:55.115Z,100834.59
2023-04-18T00:46:22.183Z,100836.13
2023-04-18T00:48:56.336Z,100832.66
2023-04-18T00:51:28.530Z,100833.66
2023-04-18T00:53:55.684Z,100829.34
2023-04-18T00:56:24.037Z,100832.09
2023-04-18T00:58:51.736Z,100832.22
2023-04-18T01:01:18.848Z,100831.53
2023-04-18T01:03:46.031Z,100832.47
2023-04-18T01:06:15.540Z,100834.66
2023-04-18T01:08:43.375Z,100831.59
2023-04-18T01:11:10.655Z,100840.41
2023-04-18T01:13:39.485Z,100837.09
2023-04-18T01:16:06.789Z,100831.97
2023-04-18T01:18:35.195Z,100836.50
2023-04-18T01:21:02.386Z,100831.50
2023-04-18T01:23:30.614Z,100825.69
2023-04-18T01:25:57.764Z,100833.44
2023-04-18T01:28:27.850Z,100825.69
2023-04-18T01:30:56.389Z,100827.38
2023-04-18T01:33:23.839Z,100828.56
2023-04-18T01:35:51.111Z,100832.84
2023-04-18T01:38:18.265Z,100825.94
2023-04-18T01:40:45.191Z,100829.53
2023-04-18T01:43:12.423Z,100824.56
2023-04-18T01:45:39.731Z,100833.94
2023-04-18T01:48:09.206Z,100825.38
2023-04-18T01:50:43.259Z,100827.03
2023-04-18T01:53:11.177Z,100819.06
2023-04-18T01:55:38.143Z,100825.94
2023-04-18T01:58:05.419Z,100820.13
2023-04-18T02:00:32.587Z,100826.31
2023-04-18T02:03:00.133Z,100823.94
2023-04-18T02:05:27.439Z,100826.69
2023-04-18T02:07:54.529Z,100827.66
2023-04-18T02:10:21.688Z,100825.16
2023-04-18T02:12:49.184Z,100825.41
2023-04-18T02:15:16.461Z,100813.41
2023-04-18T02:17:43.603Z,100816.88
2023-04-18T02:20:11.371Z,100807.34
2023-04-18T02:22:39.674Z,100809.00
2023-04-18T02:25:07.091Z,100821.13
2023-04-18T02:27:34.352Z,100809.25
2023-04-18T02:30:02.751Z,100811.75
2023-04-18T02:32:34.106Z,100815.56
2023-04-18T02:35:01.169Z,100820.81
2023-04-18T02:37:28.223Z,100817.25
2023-04-18T02:39:55.779Z,100815.56
2023-04-18T02:42:22.880Z,100818.88
2023-04-18T02:44:50.050Z,100820.56
2023-04-18T02:47:17.174Z,100812.81
2023-04-18T02:49:46.505Z,100814.50
2023-04-18T02:52:14.711Z,100815.31
2023-04-18T02:54:41.782Z,100810.78
2023-04-18T02:57:13.873Z,100814.25
2023-04-18T02:59:58.054Z,100812.31
2023-04-18T03:03:03.468Z,100810.78
2023-04-18T03:05:39.690Z,100812.56
2023-04-18T03:08:07.297Z,100806.13
2023-04-18T03:10:36.277Z,100809.34
2023-04-18T03:13:03.720Z,100798.38
2023-04-18T03:15:33.655Z,100811.44
2023-04-18T03:18:01.800Z,100808.34
2023-04-18T03:20:32.694Z,100809.72
2023-04-18T03:22:59.661Z,100807.53
2023-04-18T03:25:29.684Z,100813.25
2023-04-18T03:27:57.882Z,100811.22
2023-04-18T03:30:26.156Z,100807.09
2023-04-18T03:32:56.254Z,100808.66
2023-04-18T03:35:23.598Z,100810.50
2023-04-18T03:37:51.181Z,100814.28
2023-04-18T03:40:24.116Z,100814.47
2023-04-18T03:42:54.635Z,100814.50
2023-04-18T03:45:22.409Z,100817.03
2023-04-18T03:47:50.508Z,100817.06
2023-04-18T03:50:18.080Z,100813.78
2023-04-18T03:52:47.124Z,100818.38
2023-04-18T03:55:16.353Z,100817.19
2023-04-18T03:57:43.232Z,100815.41
2023-04-18T04:00:15.367Z,100817.47
2023-04-18T04:02:55.641Z,100814.22
2023-04-18T04:05:22.993Z,100817.47
2023-04-18T04:07:51.135Z,100815.75
2023-04-18T04:10:18.679Z,100821.84
2023-04-18T04:12:46.978Z,100818.16
2023-04-18T04:15:14.065Z,100824.69
2023-04-18T04:17:47.602Z,100812.78
2023-04-18T04:20:17.143Z,100817.38
2023-04-18T04:22:44.373Z,100822.22
2023-04-18T04:25:13.894Z,100823.06
2023-04-18T04:27:43.288Z,100816.31
2023-04-18T04:30:13.484Z,100820.75
2023-04-18T04:32:40.882Z,100818.56
2023-04-18T04:35:08.859Z,100815.38
2023-04-18T04:37:35.951Z,100814.84
2023-04-18T04:40:23.977Z,100818.69
2023-04-18T04:43:00.223Z,100817.88
2023-04-18T04:45:34.696Z,100815.09
2023-04-18T04:48:01.857Z,100817.47
2023-04-18T04:50:29.142Z,100817.88
2023-04-18T04:52:56.275Z,100823.94
2023-04-18T04:55:24.648Z,100826.16
2023-04-18T04:57:51.912Z,100826.75
2023-04-18T05:00:52.681Z,100818.44
2023-04-18T05:03:21.193Z,100821.75
2023-04-18T05:05:49.104Z,100817.88
2023-04-18T05:08:16.158Z,100818.31
2023-04-18T05:10:43.541Z,100809.72
2023-04-18T05:13:10.616Z,100824.09
2023-04-18T05:15:39.602Z,100818.94
2023-04-18T05:18:06.832Z,100813.97
2023-04-18T05:20:33.843Z,100819.22
2023-04-18T05:23:01.089Z,100820.88
2023-04-18T05:25:29.869Z,100813.94
2023-04-18T05:27:56.927Z,100823.59
2023-04-18T05:30:23.920Z,100820.41
2023-04-18T05:32:51.072Z,100818.69
2023-04-18T05:35:18.702Z,100824.06
2023-04-18T05:37:45.776Z,100824.91
2023-04-18T05:40:13.381Z,100821.31
2023-04-18T05:42:40.545Z,100830.94
2023-04-18T05:45:08.184Z,100829.16
2023-04-18T05:47:35.748Z,100828.28
2023-04-18T05:50:03.060Z,100821.31
2023-04-18T05:52:32.571Z,100828.91
2023-04-18T05:54:59.580Z,100821.47
2023-04-18T05:57:26.448Z,100819.63
2023-04-18T05:59:53.563Z,100823.75
2023-04-18T06:02:21.334Z,100821.72
2023-04-18T06:04:49.196Z,100821.97
2023-04-18T06:07:16.470Z,100823.34
2023-04-18T06:09:43.678Z,100826.34
2023-04-18T06:12:10.900Z,100822.97
2023-04-18T06:14:37.895Z,100826.25
2023-04-18T06:17:07.356Z,100825.69
2023-04-18T06:19:34.368Z,100825.09
2023-04-18T06:22:01.660Z,100818.88
2023-04-18T06:24:30.175Z,100820.59
2023-04-18T06:26:58.531Z,100817.19
2023-04-18T06:29:30.351Z,100820.00
2023-04-18T06:31:57.986Z,100827.06
2023-04-18T06:34:25.127Z,100818.63
2023-04-18T06:36:52.644Z,100824.94
2023-04-18T06:39:19.601Z,100819.97
2023-04-18T06:41:46.498Z,100812.53
2023-04-18T06:44:21.103Z,100806.84
2023-04-18T06:46:49.201Z,100805.72
2023-04-18T06:49:16.211Z,100813.63
2023-04-18T06:51:43.251Z,100813.97
2023-04-18T06:54:10.249Z,100816.13
2023-04-18T06:56:37.298Z,100816.09
2023-04-18T06:59:04.543Z,100813.38
2023-04-18T07:01:33.656Z,100801.88
2023-04-18T07:04:00.956Z,100813.75
2023-04-18T07:06:28.324Z,100807.28
2023-04-18T07:09:00.164Z,100810.94
2023-04-18T07:11:28.535Z,100802.78
2023-04-18T07:13:55.679Z,100802.25
2023-04-18T07:16:22.999Z,100806.00
2023-04-18T07:18:50.116Z,100802.28
2023-04-18T07:21:17.539Z,100804.41
2023-04-18T07:23:44.558Z,100805.38
2023-04-18T07:26:13.414Z,100807.50
2023-04-18T07:28:40.458Z,100807.19
2023-04-18T07:31:11.497Z,100813.22
2023-04-18T07:33:38.870Z,100809.09
2023-04-18T07:36:06.391Z,100809.31
2023-04-18T07:38:35.534Z,100809.53
2023-04-18T07:41:03.340Z,100811.28
2023-04-18T07:43:30.727Z,100809.78
2023-04-18T07:45:57.841Z,100801.97
2023-04-18T07:48:27.875Z,100812.44
2023-04-18T07:50:54.890Z,100815.44
2023-04-18T07:53:22.325Z,100808.34
2023-04-18T07:55:49.977Z,100797.13
2023-04-18T07:58:17.455Z,100810.31
2023-04-18T08:00:45.113Z,100808.09
2023-04-18T08:03:13.247Z,100807.13
2023-04-18T08:05:42.866Z,100805.09
2023-04-18T08:08:12.071Z,100804.66
2023-04-18T08:10:39.559Z,100802.06
2023-04-18T08:13:06.922Z,100802.22
2023-04-18T08:15:34.326Z,100801.16
2023-04-18T08:18:01.766Z,100805.28
2023-04-18T08:20:29.097Z,100799.59
2023-04-18T08:25:27.002Z,100812.88
2023-04-18T08:27:54.168Z,100812.16
2023-04-18T08:30:21.239Z,100801.78
2023-04-18T08:32:49.206Z,100805.13
2023-04-18T08:35:16.601Z,100807.44
2023-04-18T08:37:43.635Z,100811.03
2023-04-18T08:40:10.914Z,100804.94
2023-04-18T08:42:38.764Z,100812.66
2023-04-18T08:45:09.670Z,100812.00
2023-04-18T08:47:36.824Z,100814.44
2023-04-18T08:50:04.190Z,100813.59
2023-04-18T08:52:32.626Z,100806.63
2023-04-18T08:54:59.977Z,100814.22
2023-04-18T08:57:27.089Z,100812.06
2023-04-18T08:59:55.469Z,100810.22
2023-04-18T09:02:45.229Z,100811.56
2023-04-18T09:05:19.735Z,100807.59
2023-04-18T09:07:49.171Z,100808.59
2023-04-18T09:10:36.630Z,100809.25
2023-04-18T09:13:04.470Z,100813.50
2023-04-18T09:15:32.014Z,100805.88
2023-04-18T09:18:03.100Z,100818.91
2023-04-18T09:20:35.774Z,100817.53
2023-04-18T09:23:05.004Z,100819.94
2023-04-18T09:25:36.270Z,100817.13
2023-04-18T09:28:05.790Z,100817.25
2023-04-18T09:30:38.355Z,100814.09
2023-04-18T09:33:10.291Z,100813.19
2023-04-18T09:35:38.339Z,100810.22
2023-04-18T09:38:07.688Z,100816.94
2023-04-18T09:40:34.972Z,100809.66
2023-04-18T09:43:19.747Z,100820.34
2023-04-18T09:45:51.346Z,100815.38
2023-04-18T09:48:18.576Z,100817.03
2023-04-18T09:50:47.633Z,100814.91
2023-04-18T09:53:20.633Z,100806.50
2023-04-18T09:55:54.806Z,100814.41
2023-04-18T09:58:25.420Z,100809.78
2023-04-18T10:00:54.499Z,100814.88
2023-04-18T10:03:27.525Z,100818.06
2023-04-18T10:05:57.788Z,100805.88
2023-04-18T10:08:26.404Z,100816.84
2023-04-18T10:10:56.040Z,100823.81
2023-04-18T10:13:24.806Z,100825.84
2023-04-18T10:15:52.587Z,100812.81
2023-04-18T10:18:24.625Z,100825.22
2023-04-18T10:21:01.995Z,100825.00
2023-04-18T10:23:37.942Z,100826.72
2023-04-18T10:26:09.330Z,100818.66
2023-04-18T10:28:53.518Z,100811.78
2023-04-18T10:31:23.405Z,100813.94
2023-04-18T10:34:18.557Z,100822.19
2023-04-18T10:37:05.281Z,100817.41
2023-04-18T10:39:48.428Z,100816.28
2023-04-18T10:42:15.554Z,100816.09
2023-04-18T10:44:42.819Z,100817.25
2023-04-18T10:47:09.777Z,100816.97
2023-04-18T10:49:37.107Z,100824.59
2023-04-18T10:52:06.175Z,100822.28
2023-04-18T10:54:44.047Z,100817.16
2023-04-18T10:57:12.147Z,100825.56
2023-04-18T10:59:42.508Z,100819.94
2023-04-18T11:02:27.251Z,100814.00
2023-04-18T11:04:58.621Z,100815.69
2023-04-18T11:07:41.971Z,100817.03
2023-04-18T11:10:09.952Z,100816.34
2023-04-18T11:12:39.618Z,100812.88
2023-04-18T11:15:17.797Z,100811.53
2023-04-18T11:17:45.328Z,100808.19
2023-04-18T11:20:16.957Z,100807.00
2023-04-18T11:22:55.132Z,100806.63
2023-04-18T11:25:35.106Z,100807.81
2023-04-18T11:28:03.991Z,100803.97
2023-04-18T11:30:39.431Z,100800.91
2023-04-18T11:33:14.381Z,100798.78
2023-04-18T11:35:48.746Z,100804.66
2023-04-18T11:38:16.525Z,100802.53
2023-04-18T11:40:50.646Z,100806.72
2023-04-18T11:43:23.560Z,100805.22
2023-04-18T11:45:55.797Z,100798.16
2023-04-18T11:48:23.440Z,100798.59
2023-04-18T11:50:51.035Z,100792.06
2023-04-18T11:53:37.743Z,100794.53
2023-04-18T11:56:05.729Z,100788.06
2023-04-18T11:58:37.119Z,100791.28
2023-04-18T12:01:20.366Z,100792.72
2023-04-18T12:04:21.109Z,100789.56
2023-04-18T12:06:54.301Z,100797.00
2023-04-18T12:09:24.512Z,100784.50
2023-04-18T12:12:03.063Z,100792.34
2023-04-18T12:14:31.434Z,100780.22
2023-04-18T12:16:58.469Z,100773.53
2023-04-18T12:19:28.205Z,100777.84
2023-04-18T12:22:06.822Z,100766.19
2023-04-18T12:24:39.925Z,100768.31
2023-04-18T12:27:07.325Z,100765.72
2023-04-18T12:29:34.256Z,100774.91
2023-04-18T12:32:01.181Z,100771.59
2023-04-18T12:34:28.733Z,100760.13
2023-04-18T12:36:55.820Z,100764.91
2023-04-18T12:39:23.016Z,100760.88
2023-04-18T12:41:51.941Z,100760.34
2023-04-18T12:44:19.124Z,100751.63
2023-04-18T12:46:46.284Z,100754.66
2023-04-18T12:49:13.247Z,100755.81
2023-04-18T12:51:40.741Z,100748.19
2023-04-18T12:54:07.763Z,100748.53
2023-04-18T12:56:35.024Z,100760.66
2023-04-18T12:59:02.012Z,100761.63
2023-04-18T13:01:29.104Z,100759.91
2023-04-18T13:04:08.379Z,100760.78
2023-04-18T13:06:38.509Z,100761.41
2023-04-18T13:09:05.589Z,100765.75
2023-04-18T13:11:35.566Z,100761.47
2023-04-18T13:14:02.625Z,100763.81
2023-04-18T13:16:29.745Z,100755.88
2023-04-18T13:18:56.810Z,100753.56
2023-04-18T13:21:25.256Z,100750.91
2023-04-18T13:23:52.262Z,100758.19
2023-04-18T13:26:19.172Z,100762.81
2023-04-18T13:28:46.041Z,100762.78
2023-04-18T13:31:14.093Z,100763.81
2023-04-18T13:33:42.207Z,100755.50
2023-04-18T13:36:09.359Z,100751.38
2023-04-18T13:38:36.846Z,100765.75
2023-04-18T13:41:12.201Z,100768.06
2023-04-18T13:43:48.444Z,100755.34
2023-04-18T13:46:15.666Z,100756.81
2023-04-18T13:48:42.655Z,100751.34
2023-04-18T13:51:09.672Z,100756.47
2023-04-18T13:53:36.932Z,100743.59
2023-04-18T13:56:04.043Z,100745.56
2023-04-18T13:58:31.124Z,100740.31
2023-04-18T14:00:58.162Z,100740.31
2023-04-18T14:03:25.427Z,100744.94
2023-04-18T14:05:52.467Z,100746.56
2023-04-18T14:08:19.465Z,100744.63
2023-04-18T14:10:46.531Z,100743.59
2023-04-18T14:13:13.544Z,100747.09
2023-04-18T14:15:40.725Z,100746.72
2023-04-18T14:18:07.690Z,100752.69
2023-04-18T14:20:48.802Z,100749.53
2023-04-18T14:23:34.346Z,100750.06
2023-04-18T14:26:08.033Z,100754.31
2023-04-18T14:28:35.163Z,100746.56
2023-04-18T14:31:03.072Z,100746.38
2023-04-18T14:33:30.195Z,100753.19
2023-04-18T14:35:57.475Z,100751.50
2023-04-18T14:38:24.760Z,100747.91
2023-04-18T14:40:51.695Z,100752.81
2023-04-18T14:43:18.739Z,100751.97
2023-04-18T14:45:45.651Z,100746.19
2023-04-18T14:48:12.662Z,100753.75
2023-04-18T14:50:39.815Z,100749.09
2023-04-18T14:53:07.761Z,100755.03
2023-04-18T14:55:34.943Z,100756.97
2023-04-18T14:58:02.024Z,100752.31
2023-04-18T15:00:32.455Z,100752.97
2023-04-18T15:02:59.573Z,100757.09
2023-04-18T15:05:30.697Z,100758.94
2023-04-18T15:07:58.204Z,100758.25
2023-04-18T15:10:25.298Z,100755.56
2023-04-18T15:12:52.718Z,100766.75
2023-04-18T15:15:19.990Z,100757.50
2023-04-18T15:17:47.118Z,100757.97
2023-04-18T15:20:14.137Z,100760.59
2023-04-18T15:22:41.118Z,100758.97
2023-04-18T15:25:08.503Z,100763.47
2023-04-18T15:27:35.609Z,100762.63
2023-04-18T15:30:03.048Z,100750.22
2023-04-18T15:32:33.003Z,100756.97
2023-04-18T15:35:00.634Z,100756.66
2023-04-18T15:37:27.953Z,100753.63
2023-04-18T15:39:54.919Z,100754.94
2023-04-18T15:42:21.794Z,100757.53
2023-04-18T15:44:49.704Z,100753.63
2023-04-18T15:47:17.182Z,100758.75
2023-04-18T15:49:44.263Z,100763.31
2023-04-18T15:52:11.674Z,100767.91
2023-04-18T15:54:41.744Z,100759.50
2023-04-18T15:57:09.955Z,100759.00
2023-04-18T15:59:37.370Z,100765.69
2023-04-18T16:02:06.631Z,100763.75
2023-04-18T16:04:33.965Z,100763.91
2023-04-18T16:07:05.037Z,100765.72
2023-04-18T16:09:32.216Z,100766.03
2023-04-18T16:11:59.427Z,100767.00
2023-04-18T16:14:26.554Z,100767.59
2023-04-18T16:16:55.085Z,100774.84
2023-04-18T16:19:22.188Z,100769.50
2023-04-18T16:21:49.594Z,100771.31
2023-04-18T16:24:16.683Z,100765.78
2023-04-18T16:26:43.768Z,100774.53
2023-04-18T16:29:10.754Z,100773.16
2023-04-18T16:31:38.185Z,100778.19
2023-04-18T16:34:05.494Z,100772.25
2023-04-18T16:36:35.728Z,100776.97
2023-04-18T16:39:02.995Z,100777.41
2023-04-18T16:41:30.040Z,100777.72
2023-04-18T16:43:58.360Z,100786.31
2023-04-18T16:46:25.625Z,100782.16
2023-04-18T16:48:52.795Z,100781.63
2023-04-18T16:51:19.895Z,100777.47
2023-04-18T16:53:46.953Z,100783.88
2023-04-18T16:56:13.900Z,100786.66
2023-04-18T16:58:41.240Z,100783.47
2023-04-18T17:01:08.361Z,100792.34
2023-04-18T17:03:36.771Z,100792.22
2023-04-18T17:06:04.645Z,100789.59
2023-04-18T17:08:33.114Z,100791.97
2023-04-18T17:11:02.135Z,100798.63
2023-04-18T17:13:31.663Z,100799.06
2023-04-18T17:15:58.976Z,100801.53
2023-04-18T17:18:26.066Z,100804.31
2023-04-18T17:20:53.094Z,100806.13
2023-04-18T17:23:20.382Z,100803.09
2023-04-18T17:25:47.758Z,100797.56
2023-04-18T17:28:15.122Z,100804.09
2023-04-18T17:30:42.359Z,100804.22
2023-04-18T17:33:09.869Z,100796.66
2023-04-18T17:35:37.219Z,100806.84
2023-04-18T17:38:04.197Z,100801.75
2023-04-18T17:40:31.256Z,100802.72
2023-04-18T17:42:58.385Z,100804.69
2023-04-18T17:45:25.652Z,100812.00
2023-04-18T17:47:52.748Z,100800.97
2023-04-18T17:50:19.938Z,100807.88
2023-04-18T17:52:46.913Z,100806.50
2023-04-18T17:55:14.119Z,100811.47
2023-04-18T17:57:41.716Z,100814.91
2023-04-18T18:00:11.882Z,100810.63
2023-04-18T18:02:45.067Z,100809.41
2023-04-18T18:05:14.899Z,100810.94
2023-04-18T18:07:47.354Z,100808.44
2023-04-18T18:10:23.308Z,100816.47
2023-04-18T18:12:50.647Z,100815.09
2023-04-18T18:15:18.380Z,100808.44
2023-04-18T18:17:47.624Z,100813.69
2023-04-18T18:20:14.755Z,100811.34
2023-04-18T18:22:42.118Z,100815.63
2023-04-18T18:25:09.638Z,100809.56
2023-04-18T18:27:36.816Z,100803.59
2023-04-18T18:30:09.642Z,100804.06
2023-04-18T18:32:37.286Z,100805.00
2023-04-18T18:35:06.097Z,100807.63
2023-04-18T18:37:33.543Z,100803.91
2023-04-18T18:40:00.603Z,100800.03
2023-04-18T18:42:28.726Z,100809.59
2023-04-18T18:44:55.859Z,100802.53
2023-04-18T18:47:23.102Z,100810.13
2023-04-18T18:49:50.168Z,100804.88
2023-04-18T18:52:17.200Z,100804.72
2023-04-18T18:54:44.247Z,100806.50
2023-04-18T18:57:11.255Z,100809.13
2023-04-18T18:59:38.366Z,100809.00
2023-04-18T19:02:06.127Z,100803.75
2023-04-18T19:04:36.294Z,100805.69
2023-04-18T19:07:04.978Z,100809.00
2023-04-18T19:09:32.041Z,100802.91
2023-04-18T19:11:59.059Z,100800.28
2023-04-18T19:14:26.031Z,100801.97
2023-04-18T19:16:53.313Z,100795.19
2023-04-18T19:19:20.252Z,100806.50
2023-04-18T19:21:47.413Z,100797.13
2023-04-18T19:24:14.936Z,100793.53
2023-04-18T19:26:42.553Z,100796.16
2023-04-18T19:29:10.964Z,100793.69
2023-04-18T19:31:38.122Z,100800.03
2023-04-18T19:34:05.166Z,100797.69
2023-04-18T19:36:32.242Z,100797.69
2023-04-18T19:38:59.171Z,100794.09
2023-04-18T19:41:26.378Z,100796.88
2023-04-18T19:43:53.751Z,100794.38
2023-04-18T19:46:20.787Z,100797.97
2023-04-18T19:48:48.067Z,100795.47
2023-04-18T19:51:15.106Z,100797.56
2023-04-18T19:53:42.123Z,100801.81
2023-04-18T19:56:11.227Z,100795.75
2023-04-18T19:58:44.928Z,100797.97
2023-04-18T20:01:17.471Z,100797.44
2023-04-18T20:03:44.952Z,100806.13
2023-04-18T20:06:12.887Z,100798.81
2023-04-18T20:08:45.815Z,100804.88
2023-04-18T20:11:16.742Z,100801.69
2023-04-18T20:13:43.691Z,100805.56
2023-04-18T20:16:12.294Z,100807.38
2023-04-18T20:18:41.717Z,100803.78
2023-04-18T20:21:10.888Z,100802.66
2023-04-18T20:23:38.265Z,100803.50
2023-04-18T20:26:05.306Z,100813.16
2023-04-18T20:28:32.301Z,100799.63
2023-04-18T20:30:59.297Z,100803.22
2023-04-18T20:33:26.358Z,100809.31
2023-04-18T20:35:54.802Z,100808.06
2023-04-18T20:38:26.214Z,100810.94
2023-04-18T20:40:54.428Z,100806.66
2023-04-18T20:43:23.269Z,100812.34
2023-04-18T20:45:58.775Z,100796.00
2023-04-18T20:48:25.987Z,100811.75
2023-04-18T20:50:53.086Z,100810.94
2023-04-18T20:53:21.354Z,100816.19
2023-04-18T20:55:52.201Z,100810.38
2023-04-18T20:58:19.332Z,100812.03
2023-04-18T21:00:46.476Z,100817.56
2023-04-18T21:03:14.173Z,100821.16
2023-04-18T21:05:41.912Z,100815.06
2023-04-18T21:08:08.977Z,100815.31
2023-04-18T21:10:35.909Z,100814.78
2023-04-18T21:13:03.508Z,100824.88
2023-04-18T21:15:30.498Z,100825.00
2023-04-18T21:17:57.698Z,100833.69
2023-04-18T21:20:24.978Z,100821.84
2023-04-18T21:22:51.882Z,100831.22
2023-04-18T21:25:21.316Z,100818.91
2023-04-18T21:27:50.690Z,100838.41
2023-04-18T21:30:17.982Z,100837.72
2023-04-18T21:32:47.308Z,100841.03
2023-04-18T21:35:16.074Z,100836.72
2023-04-18T21:37:44.203Z,100836.31
2023-04-18T21:40:11.369Z,100837.28
2023-04-18T21:42:38.588Z,100838.94
2023-04-18T21:45:06.603Z,100843.50
2023-04-18T21:47:33.882Z,100836.72
2023-04-18T21:50:00.905Z,100836.28
2023-04-18T21:52:30.692Z,100844.84
2023-04-18T21:54:59.293Z,100837.97
2023-04-18T21:57:26.413Z,100843.34
2023-04-18T21:59:55.181Z,100849.53
2023-04-18T22:02:22.354Z,100837.63
2023-04-18T22:04:49.423Z,100838.44
2023-04-18T22:07:18.693Z,100848.41
2023-04-18T22:09:46.554Z,100848.41
2023-04-18T22:12:16.384Z,100842.72
2023-04-18T22:14:48.244Z,100833.44
2023-04-18T22:17:16.586Z,100846.41
2023-04-18T22:19:44.718Z,100853.00
2023-04-18T22:22:12.316Z,100844.97
2023-04-18T22:24:39.607Z,100856.03
2023-04-18T22:27:07.028Z,100846.66
2023-04-18T22:29:34.557Z,100849.28
2023-04-18T22:32:01.675Z,100845.09
2023-04-18T22:34:29.236Z,100847.72
2023-04-18T22:36:56.324Z,100845.94
2023-04-18T22:39:24.676Z,100839.56
2023-04-18T22:41:51.627Z,100839.69
2023-04-18T22:44:18.916Z,100842.31
2023-04-18T22:46:47.561Z,100839.09
2023-04-18T22:49:14.764Z,100837.59
2023-04-18T22:51:42.378Z,100830.78
2023-04-18T22:54:09.559Z,100834.41
2023-04-18T22:56:36.701Z,100826.66
2023-04-18T22:59:03.828Z,100829.66
2023-04-18T23:01:34.094Z,100823.00
2023-04-18T23:04:01.629Z,100824.94
2023-04-18T23:06:31.031Z,100823.53
2023-04-18T23:08:58.903Z,100828.78
2023-04-18T23:11:26.483Z,100824.59
2023-04-18T23:13:53.477Z,100828.78
2023-04-18T23:16:22.179Z,100830.69
2023-04-18T23:18:49.520Z,100827.38
2023-04-18T23:21:17.552Z,100829.16
2023-04-18T23:23:44.656Z,100835.38
2023-04-18T23:26:14.470Z,100827.66
2023-04-18T23:28:42.473Z,100829.53
2023-04-18T23:31:10.078Z,100828.97
2023-04-18T23:33:37.584Z,100824.81
2023-04-18T23:36:04.887Z,100824.00
2023-04-18T23:38:31.982Z,100828.28
2023-04-18T23:40:58.987Z,100826.28
2023-04-18T23:43:26.017Z,100828.91
2023-04-18T23:45:53.057Z,100819.38
2023-04-18T23:48:20.233Z,100820.00
2023-04-18T23:50:48.963Z,100820.63
2023-04-18T23:53:20.152Z,100819.75
2023-04-18T23:55:50.105Z,100820.63
2023-04-18T23:58:17.882Z,100818.94
